sensor_id;sensor_type;location;lat;lon;timestamp;P1;durP1;ratioP1;P2;durP2;ratioP2
67839;SDS011;54636;51.684;5.142;2024-01-15T00:00:38;1.13;;;0.70;;
67839;SDS011;54636;51.684;5.142;2024-01-15T00:03:04;4.50;;;1.05;;
67839;SDS011;54636;51.684;5.142;2024-01-15T00:05:29;2.45;;;1.30;;
67839;SDS011;54636;51.684;5.142;2024-01-15T00:07:55;2.58;;;1.10;;
67839;SDS011;54636;51.684;5.142;2024-01-15T00:10:20;2.80;;;1.25;;
67839;SDS011;54636;51.684;5.142;2024-01-15T00:12:45;1.25;;;0.88;;
67839;SDS011;54636;51.684;5.142;2024-01-15T00:15:11;3.92;;;1.20;;
67839;SDS011;54636;51.684;5.142;2024-01-15T00:17:36;3.55;;;1.40;;
67839;SDS011;54636;51.684;5.142;2024-01-15T00:20:01;0.40;;;0.40;;
67839;SDS011;54636;51.684;5.142;2024-01-15T00:22:28;6.75;;;1.30;;
67839;SDS011;54636;51.684;5.142;2024-01-15T00:24:54;4.40;;;1.00;;
67839;SDS011;54636;51.684;5.142;2024-01-15T00:27:19;5.95;;;1.00;;
67839;SDS011;54636;51.684;5.142;2024-01-15T00:29:45;1.33;;;0.73;;
67839;SDS011;54636;51.684;5.142;2024-01-15T00:32:10;3.85;;;1.08;;
67839;SDS011;54636;51.684;5.142;2024-01-15T00:34:35;6.60;;;1.40;;
67839;SDS011;54636;51.684;5.142;2024-01-15T00:37:01;3.50;;;1.20;;
67839;SDS011;54636;51.684;5.142;2024-01-15T00:39:26;4.53;;;1.20;;
67839;SDS011;54636;51.684;5.142;2024-01-15T00:41:51;7.30;;;1.70;;
67839;SDS011;54636;51.684;5.142;2024-01-15T00:44:17;6.05;;;1.55;;
67839;SDS011;54636;51.684;5.142;2024-01-15T00:46:45;2.28;;;1.13;;
67839;SDS011;54636;51.684;5.142;2024-01-15T00:49:12;5.00;;;1.27;;
67839;SDS011;54636;51.684;5.142;2024-01-15T00:51:38;11.32;;;1.77;;
67839;SDS011;54636;51.684;5.142;2024-01-15T00:54:04;10.00;;;1.70;;
67839;SDS011;54636;51.684;5.142;2024-01-15T00:56:29;4.72;;;1.15;;
67839;SDS011;54636;51.684;5.142;2024-01-15T00:58:54;5.15;;;1.08;;
67839;SDS011;54636;51.684;5.142;2024-01-15T01:01:20;4.03;;;1.02;;
67839;SDS011;54636;51.684;5.142;2024-01-15T01:03:45;4.85;;;1.00;;
67839;SDS011;54636;51.684;5.142;2024-01-15T01:06:10;2.30;;;1.00;;
67839;SDS011;54636;51.684;5.142;2024-01-15T01:08:36;5.32;;;1.33;;
67839;SDS011;54636;51.684;5.142;2024-01-15T01:11:01;6.13;;;1.50;;
67839;SDS011;54636;51.684;5.142;2024-01-15T01:13:26;14.52;;;1.50;;
67839;SDS011;54636;51.684;5.142;2024-01-15T01:15:52;1.73;;;0.50;;
67839;SDS011;54636;51.684;5.142;2024-01-15T01:18:17;9.85;;;1.33;;
67839;SDS011;54636;51.684;5.142;2024-01-15T01:20:42;7.60;;;1.38;;
67839;SDS011;54636;51.684;5.142;2024-01-15T01:23:08;5.35;;;0.85;;
67839;SDS011;54636;51.684;5.142;2024-01-15T01:25:33;7.05;;;1.52;;
67839;SDS011;54636;51.684;5.142;2024-01-15T01:27:59;5.55;;;2.05;;
67839;SDS011;54636;51.684;5.142;2024-01-15T01:30:24;8.18;;;1.10;;
67839;SDS011;54636;51.684;5.142;2024-01-15T01:32:50;5.53;;;1.33;;
67839;SDS011;54636;51.684;5.142;2024-01-15T01:35:15;2.55;;;0.82;;
67839;SDS011;54636;51.684;5.142;2024-01-15T01:37:40;1.98;;;0.82;;
67839;SDS011;54636;51.684;5.142;2024-01-15T01:40:06;7.80;;;1.40;;
67839;SDS011;54636;51.684;5.142;2024-01-15T01:42:32;8.60;;;1.52;;
67839;SDS011;54636;51.684;5.142;2024-01-15T01:44:57;5.88;;;1.60;;
67839;SDS011;54636;51.684;5.142;2024-01-15T01:47:22;8.80;;;1.85;;
67839;SDS011;54636;51.684;5.142;2024-01-15T01:49:51;1.67;;;1.05;;
67839;SDS011;54636;51.684;5.142;2024-01-15T01:52:17;6.72;;;1.10;;
67839;SDS011;54636;51.684;5.142;2024-01-15T01:54:42;4.25;;;2.05;;
67839;SDS011;54636;51.684;5.142;2024-01-15T01:57:08;6.97;;;1.20;;
67839;SDS011;54636;51.684;5.142;2024-01-15T01:59:34;6.70;;;1.95;;
67839;SDS011;54636;51.684;5.142;2024-01-15T02:02:00;4.80;;;1.13;;
67839;SDS011;54636;51.684;5.142;2024-01-15T02:04:28;3.97;;;0.98;;
67839;SDS011;54636;51.684;5.142;2024-01-15T02:06:55;9.65;;;1.50;;
67839;SDS011;54636;51.684;5.142;2024-01-15T02:09:21;4.18;;;1.17;;
67839;SDS011;54636;51.684;5.142;2024-01-15T02:11:46;6.47;;;1.25;;
67839;SDS011;54636;51.684;5.142;2024-01-15T02:14:12;6.13;;;1.20;;
67839;SDS011;54636;51.684;5.142;2024-01-15T02:16:38;7.18;;;1.30;;
67839;SDS011;54636;51.684;5.142;2024-01-15T02:19:03;7.75;;;1.00;;
67839;SDS011;54636;51.684;5.142;2024-01-15T02:21:29;13.90;;;1.35;;
67839;SDS011;54636;51.684;5.142;2024-01-15T02:23:56;4.57;;;1.13;;
67839;SDS011;54636;51.684;5.142;2024-01-15T02:26:21;4.55;;;1.13;;
67839;SDS011;54636;51.684;5.142;2024-01-15T02:28:47;10.38;;;1.60;;
67839;SDS011;54636;51.684;5.142;2024-01-15T02:31:13;4.40;;;1.10;;
67839;SDS011;54636;51.684;5.142;2024-01-15T02:33:39;10.32;;;1.20;;
67839;SDS011;54636;51.684;5.142;2024-01-15T02:36:07;12.07;;;2.08;;
67839;SDS011;54636;51.684;5.142;2024-01-15T02:38:33;5.32;;;0.95;;
67839;SDS011;54636;51.684;5.142;2024-01-15T02:40:58;7.65;;;1.48;;
67839;SDS011;54636;51.684;5.142;2024-01-15T02:43:23;13.55;;;1.65;;
67839;SDS011;54636;51.684;5.142;2024-01-15T02:45:49;3.20;;;0.50;;
67839;SDS011;54636;51.684;5.142;2024-01-15T02:48:14;5.38;;;0.98;;
67839;SDS011;54636;51.684;5.142;2024-01-15T02:50:39;2.78;;;0.52;;
67839;SDS011;54636;51.684;5.142;2024-01-15T02:53:05;6.00;;;1.35;;
67839;SDS011;54636;51.684;5.142;2024-01-15T02:55:30;8.02;;;1.60;;
67839;SDS011;54636;51.684;5.142;2024-01-15T02:57:56;12.63;;;2.00;;
67839;SDS011;54636;51.684;5.142;2024-01-15T03:00:21;9.15;;;1.40;;
67839;SDS011;54636;51.684;5.142;2024-01-15T03:02:47;7.15;;;1.38;;
67839;SDS011;54636;51.684;5.142;2024-01-15T03:05:15;4.50;;;1.00;;
67839;SDS011;54636;51.684;5.142;2024-01-15T03:07:41;8.93;;;1.23;;
67839;SDS011;54636;51.684;5.142;2024-01-15T03:10:07;10.05;;;1.20;;
67839;SDS011;54636;51.684;5.142;2024-01-15T03:12:32;7.25;;;0.80;;
67839;SDS011;54636;51.684;5.142;2024-01-15T03:14:58;6.35;;;1.30;;
67839;SDS011;54636;51.684;5.142;2024-01-15T03:17:23;4.95;;;0.98;;
67839;SDS011;54636;51.684;5.142;2024-01-15T03:19:49;6.22;;;1.10;;
67839;SDS011;54636;51.684;5.142;2024-01-15T03:22:17;8.93;;;1.58;;
67839;SDS011;54636;51.684;5.142;2024-01-15T03:24:43;7.40;;;1.05;;
67839;SDS011;54636;51.684;5.142;2024-01-15T03:27:08;5.75;;;1.10;;
67839;SDS011;54636;51.684;5.142;2024-01-15T03:29:34;9.02;;;0.95;;
67839;SDS011;54636;51.684;5.142;2024-01-15T03:31:59;2.85;;;0.82;;
67839;SDS011;54636;51.684;5.142;2024-01-15T03:34:24;3.53;;;1.15;;
67839;SDS011;54636;51.684;5.142;2024-01-15T03:36:50;7.85;;;1.23;;
67839;SDS011;54636;51.684;5.142;2024-01-15T03:39:15;14.10;;;1.75;;
67839;SDS011;54636;51.684;5.142;2024-01-15T03:41:40;11.55;;;1.50;;
67839;SDS011;54636;51.684;5.142;2024-01-15T03:44:06;10.27;;;1.52;;
67839;SDS011;54636;51.684;5.142;2024-01-15T03:46:31;7.55;;;1.33;;
67839;SDS011;54636;51.684;5.142;2024-01-15T03:48:57;8.77;;;1.02;;
67839;SDS011;54636;51.684;5.142;2024-01-15T03:51:22;7.50;;;1.38;;
67839;SDS011;54636;51.684;5.142;2024-01-15T03:53:48;6.30;;;1.13;;
67839;SDS011;54636;51.684;5.142;2024-01-15T03:56:13;5.68;;;1.17;;
67839;SDS011;54636;51.684;5.142;2024-01-15T03:58:39;8.27;;;1.08;;
67839;SDS011;54636;51.684;5.142;2024-01-15T04:01:07;3.78;;;0.82;;
67839;SDS011;54636;51.684;5.142;2024-01-15T04:03:33;10.07;;;1.20;;
67839;SDS011;54636;51.684;5.142;2024-01-15T04:05:59;10.40;;;1.95;;
67839;SDS011;54636;51.684;5.142;2024-01-15T04:08:24;11.50;;;1.42;;
67839;SDS011;54636;51.684;5.142;2024-01-15T04:10:49;8.18;;;1.25;;
67839;SDS011;54636;51.684;5.142;2024-01-15T04:13:15;11.13;;;1.60;;
67839;SDS011;54636;51.684;5.142;2024-01-15T04:15:40;5.45;;;1.45;;
67839;SDS011;54636;51.684;5.142;2024-01-15T04:18:05;12.40;;;2.00;;
67839;SDS011;54636;51.684;5.142;2024-01-15T04:20:31;7.57;;;1.27;;
67839;SDS011;54636;51.684;5.142;2024-01-15T04:22:56;3.00;;;1.38;;
67839;SDS011;54636;51.684;5.142;2024-01-15T04:25:21;3.78;;;0.77;;
67839;SDS011;54636;51.684;5.142;2024-01-15T04:27:47;0.55;;;0.40;;
67839;SDS011;54636;51.684;5.142;2024-01-15T04:30:12;1.35;;;0.43;;
67839;SDS011;54636;51.684;5.142;2024-01-15T04:32:38;2.90;;;0.28;;
67839;SDS011;54636;51.684;5.142;2024-01-15T04:35:03;1.67;;;0.50;;
67839;SDS011;54636;51.684;5.142;2024-01-15T04:37:29;1.20;;;0.63;;
67839;SDS011;54636;51.684;5.142;2024-01-15T04:39:54;1.48;;;0.32;;
67839;SDS011;54636;51.684;5.142;2024-01-15T04:42:22;4.97;;;0.43;;
67839;SDS011;54636;51.684;5.142;2024-01-15T04:44:48;1.25;;;0.20;;
67839;SDS011;54636;51.684;5.142;2024-01-15T04:47:14;0.43;;;0.28;;
67839;SDS011;54636;51.684;5.142;2024-01-15T04:49:39;0.10;;;0.08;;
67839;SDS011;54636;51.684;5.142;2024-01-15T04:52:05;2.55;;;0.30;;
67839;SDS011;54636;51.684;5.142;2024-01-15T04:54:30;3.97;;;1.30;;
67839;SDS011;54636;51.684;5.142;2024-01-15T04:56:55;0.25;;;0.20;;
67839;SDS011;54636;51.684;5.142;2024-01-15T04:59:21;0.45;;;0.20;;
67839;SDS011;54636;51.684;5.142;2024-01-15T05:01:46;1.95;;;0.38;;
67839;SDS011;54636;51.684;5.142;2024-01-15T05:04:12;4.03;;;0.52;;
67839;SDS011;54636;51.684;5.142;2024-01-15T05:06:37;5.45;;;0.70;;
67839;SDS011;54636;51.684;5.142;2024-01-15T05:09:03;2.25;;;0.35;;
67839;SDS011;54636;51.684;5.142;2024-01-15T05:11:29;5.75;;;0.70;;
67839;SDS011;54636;51.684;5.142;2024-01-15T05:13:54;0.55;;;0.30;;
67839;SDS011;54636;51.684;5.142;2024-01-15T05:16:20;1.35;;;0.52;;
67839;SDS011;54636;51.684;5.142;2024-01-15T05:18:45;1.23;;;0.55;;
67839;SDS011;54636;51.684;5.142;2024-01-15T05:21:10;0.03;;;0.03;;
67839;SDS011;54636;51.684;5.142;2024-01-15T05:23:36;2.30;;;0.52;;
67839;SDS011;54636;51.684;5.142;2024-01-15T05:26:01;0.52;;;0.50;;
67839;SDS011;54636;51.684;5.142;2024-01-15T05:28:27;1.50;;;0.35;;
67839;SDS011;54636;51.684;5.142;2024-01-15T05:30:53;1.83;;;0.70;;
67839;SDS011;54636;51.684;5.142;2024-01-15T05:33:20;1.30;;;0.50;;
67839;SDS011;54636;51.684;5.142;2024-01-15T05:35:46;0.55;;;0.55;;
67839;SDS011;54636;51.684;5.142;2024-01-15T05:38:11;0.20;;;0.20;;
67839;SDS011;54636;51.684;5.142;2024-01-15T05:40:37;0.25;;;0.25;;
67839;SDS011;54636;51.684;5.142;2024-01-15T05:43:03;1.02;;;0.75;;
67839;SDS011;54636;51.684;5.142;2024-01-15T05:45:29;2.17;;;0.43;;
67839;SDS011;54636;51.684;5.142;2024-01-15T05:47:55;3.60;;;1.02;;
67839;SDS011;54636;51.684;5.142;2024-01-15T05:50:21;0.50;;;0.50;;
67839;SDS011;54636;51.684;5.142;2024-01-15T05:52:47;2.15;;;0.70;;
67839;SDS011;54636;51.684;5.142;2024-01-15T05:55:12;0.63;;;0.63;;
67839;SDS011;54636;51.684;5.142;2024-01-15T05:57:38;0.70;;;0.70;;
67839;SDS011;54636;51.684;5.142;2024-01-15T06:00:03;0.65;;;0.60;;
67839;SDS011;54636;51.684;5.142;2024-01-15T06:02:29;1.27;;;0.90;;
67839;SDS011;54636;51.684;5.142;2024-01-15T06:04:55;1.48;;;1.23;;
67839;SDS011;54636;51.684;5.142;2024-01-15T06:07:20;2.10;;;0.90;;
67839;SDS011;54636;51.684;5.142;2024-01-15T06:09:46;0.98;;;0.98;;
67839;SDS011;54636;51.684;5.142;2024-01-15T06:12:11;2.83;;;1.23;;
67839;SDS011;54636;51.684;5.142;2024-01-15T06:14:37;3.28;;;1.48;;
67839;SDS011;54636;51.684;5.142;2024-01-15T06:17:02;2.80;;;1.33;;
67839;SDS011;54636;51.684;5.142;2024-01-15T06:19:28;7.82;;;1.75;;
67839;SDS011;54636;51.684;5.142;2024-01-15T06:21:53;1.92;;;1.70;;
67839;SDS011;54636;51.684;5.142;2024-01-15T06:24:19;2.80;;;1.63;;
67839;SDS011;54636;51.684;5.142;2024-01-15T06:26:46;2.67;;;1.48;;
67839;SDS011;54636;51.684;5.142;2024-01-15T06:29:11;3.97;;;2.28;;
67839;SDS011;54636;51.684;5.142;2024-01-15T06:31:37;2.10;;;1.90;;
67839;SDS011;54636;51.684;5.142;2024-01-15T06:34:02;3.67;;;1.65;;
67839;SDS011;54636;51.684;5.142;2024-01-15T06:36:28;1.13;;;1.05;;
67839;SDS011;54636;51.684;5.142;2024-01-15T06:38:53;3.97;;;2.00;;
67839;SDS011;54636;51.684;5.142;2024-01-15T06:41:19;1.75;;;1.60;;
67839;SDS011;54636;51.684;5.142;2024-01-15T06:43:44;2.25;;;1.45;;
67839;SDS011;54636;51.684;5.142;2024-01-15T06:46:09;2.65;;;1.30;;
67839;SDS011;54636;51.684;5.142;2024-01-15T06:48:35;1.63;;;1.50;;
67839;SDS011;54636;51.684;5.142;2024-01-15T06:51:00;1.48;;;1.38;;
67839;SDS011;54636;51.684;5.142;2024-01-15T06:53:25;1.80;;;1.70;;
67839;SDS011;54636;51.684;5.142;2024-01-15T06:55:51;1.60;;;1.50;;
67839;SDS011;54636;51.684;5.142;2024-01-15T06:58:16;2.30;;;1.67;;
67839;SDS011;54636;51.684;5.142;2024-01-15T07:00:41;1.63;;;1.60;;
67839;SDS011;54636;51.684;5.142;2024-01-15T07:03:07;2.00;;;1.90;;
67839;SDS011;54636;51.684;5.142;2024-01-15T07:05:32;1.45;;;1.38;;
67839;SDS011;54636;51.684;5.142;2024-01-15T07:07:58;2.38;;;2.10;;
67839;SDS011;54636;51.684;5.142;2024-01-15T07:10:23;1.65;;;1.55;;
67839;SDS011;54636;51.684;5.142;2024-01-15T07:12:48;2.45;;;2.25;;
67839;SDS011;54636;51.684;5.142;2024-01-15T07:15:14;2.45;;;2.35;;
67839;SDS011;54636;51.684;5.142;2024-01-15T07:17:40;3.63;;;1.77;;
67839;SDS011;54636;51.684;5.142;2024-01-15T07:20:06;2.17;;;1.80;;
67839;SDS011;54636;51.684;5.142;2024-01-15T07:22:35;4.28;;;2.63;;
67839;SDS011;54636;51.684;5.142;2024-01-15T07:25:01;3.03;;;2.17;;
67839;SDS011;54636;51.684;5.142;2024-01-15T07:27:27;1.23;;;1.13;;
67839;SDS011;54636;51.684;5.142;2024-01-15T07:29:52;1.73;;;1.63;;
67839;SDS011;54636;51.684;5.142;2024-01-15T07:32:18;1.85;;;1.73;;
67839;SDS011;54636;51.684;5.142;2024-01-15T07:34:43;3.15;;;1.80;;
67839;SDS011;54636;51.684;5.142;2024-01-15T07:37:08;1.30;;;0.98;;
67839;SDS011;54636;51.684;5.142;2024-01-15T07:39:34;0.90;;;0.90;;
67839;SDS011;54636;51.684;5.142;2024-01-15T07:42:00;1.15;;;1.15;;
67839;SDS011;54636;51.684;5.142;2024-01-15T07:44:25;0.80;;;0.80;;
67839;SDS011;54636;51.684;5.142;2024-01-15T07:46:51;1.08;;;1.00;;
67839;SDS011;54636;51.684;5.142;2024-01-15T07:49:16;1.88;;;1.52;;
67839;SDS011;54636;51.684;5.142;2024-01-15T07:51:42;1.35;;;1.25;;
67839;SDS011;54636;51.684;5.142;2024-01-15T07:54:08;2.70;;;1.55;;
67839;SDS011;54636;51.684;5.142;2024-01-15T07:56:34;2.42;;;1.40;;
67839;SDS011;54636;51.684;5.142;2024-01-15T07:59:17;1.98;;;1.67;;
67839;SDS011;54636;51.684;5.142;2024-01-15T08:01:43;1.83;;;1.63;;
67839;SDS011;54636;51.684;5.142;2024-01-15T08:04:08;5.35;;;2.00;;
67839;SDS011;54636;51.684;5.142;2024-01-15T08:06:34;4.15;;;2.08;;
67839;SDS011;54636;51.684;5.142;2024-01-15T08:08:59;4.28;;;1.90;;
67839;SDS011;54636;51.684;5.142;2024-01-15T08:11:24;2.75;;;2.13;;
67839;SDS011;54636;51.684;5.142;2024-01-15T08:13:50;3.05;;;2.83;;
67839;SDS011;54636;51.684;5.142;2024-01-15T08:16:15;2.42;;;2.08;;
67839;SDS011;54636;51.684;5.142;2024-01-15T08:18:41;2.42;;;2.22;;
67839;SDS011;54636;51.684;5.142;2024-01-15T08:21:07;9.05;;;2.75;;
67839;SDS011;54636;51.684;5.142;2024-01-15T08:23:34;4.35;;;3.22;;
67839;SDS011;54636;51.684;5.142;2024-01-15T08:25:59;4.40;;;2.38;;
67839;SDS011;54636;51.684;5.142;2024-01-15T08:28:25;1.70;;;1.60;;
67839;SDS011;54636;51.684;5.142;2024-01-15T08:30:50;2.33;;;2.10;;
67839;SDS011;54636;51.684;5.142;2024-01-15T08:33:15;2.63;;;2.47;;
67839;SDS011;54636;51.684;5.142;2024-01-15T08:35:41;3.88;;;2.53;;
67839;SDS011;54636;51.684;5.142;2024-01-15T08:38:06;5.78;;;3.10;;
67839;SDS011;54636;51.684;5.142;2024-01-15T08:40:31;5.95;;;4.18;;
67839;SDS011;54636;51.684;5.142;2024-01-15T08:42:57;4.07;;;2.25;;
67839;SDS011;54636;51.684;5.142;2024-01-15T08:45:22;5.78;;;2.00;;
67839;SDS011;54636;51.684;5.142;2024-01-15T08:47:48;1.38;;;1.30;;
67839;SDS011;54636;51.684;5.142;2024-01-15T08:50:13;1.50;;;1.25;;
67839;SDS011;54636;51.684;5.142;2024-01-15T08:52:39;1.55;;;1.13;;
67839;SDS011;54636;51.684;5.142;2024-01-15T08:55:05;3.58;;;1.48;;
67839;SDS011;54636;51.684;5.142;2024-01-15T08:57:32;2.58;;;0.82;;
67839;SDS011;54636;51.684;5.142;2024-01-15T08:59:57;1.98;;;0.70;;
67839;SDS011;54636;51.684;5.142;2024-01-15T09:02:24;5.35;;;0.88;;
67839;SDS011;54636;51.684;5.142;2024-01-15T09:04:49;5.95;;;1.48;;
67839;SDS011;54636;51.684;5.142;2024-01-15T09:07:14;2.42;;;0.77;;
67839;SDS011;54636;51.684;5.142;2024-01-15T09:09:40;7.13;;;0.82;;
67839;SDS011;54636;51.684;5.142;2024-01-15T09:12:07;2.08;;;1.10;;
67839;SDS011;54636;51.684;5.142;2024-01-15T09:14:32;4.72;;;0.98;;
67839;SDS011;54636;51.684;5.142;2024-01-15T09:16:59;3.30;;;1.13;;
67839;SDS011;54636;51.684;5.142;2024-01-15T09:19:24;1.75;;;1.08;;
67839;SDS011;54636;51.684;5.142;2024-01-15T09:21:50;2.50;;;0.85;;
67839;SDS011;54636;51.684;5.142;2024-01-15T09:24:15;5.80;;;1.00;;
67839;SDS011;54636;51.684;5.142;2024-01-15T09:26:40;3.10;;;1.25;;
67839;SDS011;54636;51.684;5.142;2024-01-15T09:29:06;2.38;;;0.93;;
67839;SDS011;54636;51.684;5.142;2024-01-15T09:31:31;5.80;;;0.80;;
67839;SDS011;54636;51.684;5.142;2024-01-15T09:33:56;5.22;;;1.08;;
67839;SDS011;54636;51.684;5.142;2024-01-15T09:36:24;3.78;;;0.90;;
67839;SDS011;54636;51.684;5.142;2024-01-15T09:38:50;5.20;;;1.30;;
67839;SDS011;54636;51.684;5.142;2024-01-15T09:41:16;7.05;;;1.33;;
67839;SDS011;54636;51.684;5.142;2024-01-15T09:43:41;8.27;;;1.27;;
67839;SDS011;54636;51.684;5.142;2024-01-15T09:46:08;3.85;;;1.50;;
67839;SDS011;54636;51.684;5.142;2024-01-15T09:48:33;5.55;;;1.60;;
67839;SDS011;54636;51.684;5.142;2024-01-15T09:51:00;2.78;;;0.80;;
67839;SDS011;54636;51.684;5.142;2024-01-15T09:53:26;5.43;;;1.20;;
67839;SDS011;54636;51.684;5.142;2024-01-15T09:55:52;5.35;;;1.60;;
67839;SDS011;54636;51.684;5.142;2024-01-15T09:58:18;7.60;;;1.25;;
67839;SDS011;54636;51.684;5.142;2024-01-15T10:00:44;6.70;;;3.10;;
67839;SDS011;54636;51.684;5.142;2024-01-15T10:03:09;7.45;;;1.80;;
67839;SDS011;54636;51.684;5.142;2024-01-15T10:05:36;7.10;;;1.67;;
67839;SDS011;54636;51.684;5.142;2024-01-15T10:08:03;7.90;;;2.10;;
67839;SDS011;54636;51.684;5.142;2024-01-15T10:10:29;4.88;;;1.45;;
67839;SDS011;54636;51.684;5.142;2024-01-15T10:12:54;4.85;;;1.40;;
67839;SDS011;54636;51.684;5.142;2024-01-15T10:15:23;10.40;;;1.77;;
67839;SDS011;54636;51.684;5.142;2024-01-15T10:17:49;7.05;;;1.60;;
67839;SDS011;54636;51.684;5.142;2024-01-15T10:20:15;3.25;;;1.10;;
67839;SDS011;54636;51.684;5.142;2024-01-15T10:22:41;2.80;;;1.10;;
67839;SDS011;54636;51.684;5.142;2024-01-15T10:25:12;2.53;;;1.27;;
67839;SDS011;54636;51.684;5.142;2024-01-15T10:27:39;3.45;;;1.23;;
67839;SDS011;54636;51.684;5.142;2024-01-15T10:30:06;9.65;;;1.80;;
67839;SDS011;54636;51.684;5.142;2024-01-15T10:32:32;5.22;;;1.77;;
67839;SDS011;54636;51.684;5.142;2024-01-15T10:34:58;7.15;;;1.80;;
67839;SDS011;54636;51.684;5.142;2024-01-15T10:37:24;5.13;;;1.98;;
67839;SDS011;54636;51.684;5.142;2024-01-15T10:39:50;6.15;;;1.77;;
67839;SDS011;54636;51.684;5.142;2024-01-15T10:42:16;6.03;;;1.88;;
67839;SDS011;54636;51.684;5.142;2024-01-15T10:44:43;4.70;;;1.35;;
67839;SDS011;54636;51.684;5.142;2024-01-15T10:47:09;8.60;;;1.55;;
67839;SDS011;54636;51.684;5.142;2024-01-15T10:49:36;5.28;;;1.70;;
67839;SDS011;54636;51.684;5.142;2024-01-15T10:52:02;11.82;;;3.33;;
67839;SDS011;54636;51.684;5.142;2024-01-15T10:54:27;8.20;;;2.50;;
67839;SDS011;54636;51.684;5.142;2024-01-15T10:56:53;6.05;;;2.42;;
67839;SDS011;54636;51.684;5.142;2024-01-15T10:59:21;4.40;;;1.73;;
67839;SDS011;54636;51.684;5.142;2024-01-15T11:01:50;2.50;;;1.10;;
67839;SDS011;54636;51.684;5.142;2024-01-15T11:04:18;3.80;;;0.90;;
67839;SDS011;54636;51.684;5.142;2024-01-15T11:06:46;3.00;;;1.05;;
67839;SDS011;54636;51.684;5.142;2024-01-15T11:09:13;3.28;;;0.80;;
67839;SDS011;54636;51.684;5.142;2024-01-15T11:11:40;2.25;;;1.23;;
67839;SDS011;54636;51.684;5.142;2024-01-15T11:14:10;11.15;;;1.10;;
67839;SDS011;54636;51.684;5.142;2024-01-15T11:16:54;2.28;;;0.43;;
67839;SDS011;54636;51.684;5.142;2024-01-15T11:24:54;2.55;;;0.30;;
67839;SDS011;54636;51.684;5.142;2024-01-15T11:27:39;2.55;;;0.90;;
67839;SDS011;54636;51.684;5.142;2024-01-15T11:30:24;2.78;;;1.15;;
67839;SDS011;54636;51.684;5.142;2024-01-15T11:32:50;2.90;;;0.75;;
67839;SDS011;54636;51.684;5.142;2024-01-15T11:35:16;2.17;;;1.60;;
67839;SDS011;54636;51.684;5.142;2024-01-15T11:40:19;4.10;;;1.92;;
67839;SDS011;54636;51.684;5.142;2024-01-15T11:43:04;4.10;;;2.10;;
67839;SDS011;54636;51.684;5.142;2024-01-15T11:45:30;3.25;;;1.17;;
67839;SDS011;54636;51.684;5.142;2024-01-15T11:50:41;3.53;;;1.13;;
67839;SDS011;54636;51.684;5.142;2024-01-15T11:53:13;2.15;;;0.98;;
67839;SDS011;54636;51.684;5.142;2024-01-15T11:55:44;2.97;;;1.30;;
67839;SDS011;54636;51.684;5.142;2024-01-15T11:58:10;2.25;;;0.70;;
67839;SDS011;54636;51.684;5.142;2024-01-15T12:01:10;1.73;;;0.95;;
67839;SDS011;54636;51.684;5.142;2024-01-15T12:03:28;7.32;;;1.75;;
67839;SDS011;54636;51.684;5.142;2024-01-15T12:08:25;12.20;;;4.97;;
67839;SDS011;54636;51.684;5.142;2024-01-15T12:10:52;4.28;;;2.63;;
67839;SDS011;54636;51.684;5.142;2024-01-15T12:13:17;3.10;;;0.98;;
67839;SDS011;54636;51.684;5.142;2024-01-15T12:15:44;1.85;;;1.25;;
67839;SDS011;54636;51.684;5.142;2024-01-15T12:18:12;1.55;;;1.02;;
67839;SDS011;54636;51.684;5.142;2024-01-15T12:20:39;2.10;;;0.80;;
67839;SDS011;54636;51.684;5.142;2024-01-15T12:23:06;4.03;;;1.17;;
67839;SDS011;54636;51.684;5.142;2024-01-15T12:25:31;4.65;;;1.00;;
67839;SDS011;54636;51.684;5.142;2024-01-15T12:27:58;3.22;;;1.00;;
67839;SDS011;54636;51.684;5.142;2024-01-15T12:30:29;2.13;;;0.73;;
67839;SDS011;54636;51.684;5.142;2024-01-15T12:33:00;2.78;;;1.05;;
67839;SDS011;54636;51.684;5.142;2024-01-15T12:37:55;0.88;;;0.88;;
67839;SDS011;54636;51.684;5.142;2024-01-15T12:40:21;1.05;;;1.05;;
67839;SDS011;54636;51.684;5.142;2024-01-15T12:42:47;3.00;;;1.30;;
67839;SDS011;54636;51.684;5.142;2024-01-15T12:45:13;1.90;;;1.60;;
67839;SDS011;54636;51.684;5.142;2024-01-15T12:47:39;1.50;;;1.48;;
67839;SDS011;54636;51.684;5.142;2024-01-15T12:50:11;5.68;;;1.75;;
67839;SDS011;54636;51.684;5.142;2024-01-15T12:52:37;1.80;;;1.48;;
67839;SDS011;54636;51.684;5.142;2024-01-15T12:55:06;2.13;;;2.00;;
67839;SDS011;54636;51.684;5.142;2024-01-15T12:57:32;3.17;;;1.77;;
67839;SDS011;54636;51.684;5.142;2024-01-15T12:59:59;2.45;;;1.13;;
67839;SDS011;54636;51.684;5.142;2024-01-15T13:02:24;2.80;;;1.85;;
67839;SDS011;54636;51.684;5.142;2024-01-15T13:04:50;5.50;;;1.83;;
67839;SDS011;54636;51.684;5.142;2024-01-15T13:07:16;8.20;;;3.03;;
67839;SDS011;54636;51.684;5.142;2024-01-15T13:09:41;6.75;;;2.60;;
67839;SDS011;54636;51.684;5.142;2024-01-15T13:12:08;3.50;;;1.80;;
67839;SDS011;54636;51.684;5.142;2024-01-15T13:14:33;6.20;;;2.75;;
67839;SDS011;54636;51.684;5.142;2024-01-15T13:16:59;2.70;;;2.22;;
67839;SDS011;54636;51.684;5.142;2024-01-15T13:19:24;4.07;;;2.85;;
67839;SDS011;54636;51.684;5.142;2024-01-15T13:21:50;4.72;;;2.85;;
67839;SDS011;54636;51.684;5.142;2024-01-15T13:24:16;7.88;;;4.15;;
67839;SDS011;54636;51.684;5.142;2024-01-15T13:26:45;11.30;;;5.47;;
67839;SDS011;54636;51.684;5.142;2024-01-15T13:29:10;6.45;;;3.85;;
67839;SDS011;54636;51.684;5.142;2024-01-15T13:31:36;7.25;;;3.53;;
67839;SDS011;54636;51.684;5.142;2024-01-15T13:34:01;6.72;;;3.55;;
67839;SDS011;54636;51.684;5.142;2024-01-15T13:36:28;5.40;;;3.10;;
67839;SDS011;54636;51.684;5.142;2024-01-15T13:38:53;9.02;;;1.75;;
67839;SDS011;54636;51.684;5.142;2024-01-15T13:41:20;4.63;;;1.98;;
67839;SDS011;54636;51.684;5.142;2024-01-15T13:43:52;5.28;;;1.75;;
67839;SDS011;54636;51.684;5.142;2024-01-15T13:46:19;3.10;;;1.77;;
67839;SDS011;54636;51.684;5.142;2024-01-15T13:48:45;6.90;;;2.47;;
67839;SDS011;54636;51.684;5.142;2024-01-15T13:51:10;3.63;;;1.60;;
67839;SDS011;54636;51.684;5.142;2024-01-15T13:53:37;5.20;;;1.77;;
67839;SDS011;54636;51.684;5.142;2024-01-15T13:56:03;7.20;;;2.50;;
67839;SDS011;54636;51.684;5.142;2024-01-15T13:58:29;4.63;;;2.10;;
67839;SDS011;54636;51.684;5.142;2024-01-15T14:00:55;4.35;;;1.80;;
67839;SDS011;54636;51.684;5.142;2024-01-15T14:03:20;6.78;;;2.78;;
67839;SDS011;54636;51.684;5.142;2024-01-15T14:05:46;2.03;;;1.33;;
67839;SDS011;54636;51.684;5.142;2024-01-15T14:08:11;3.97;;;1.23;;
67839;SDS011;54636;51.684;5.142;2024-01-15T14:10:37;4.82;;;1.75;;
67839;SDS011;54636;51.684;5.142;2024-01-15T14:13:02;3.00;;;1.33;;
67839;SDS011;54636;51.684;5.142;2024-01-15T14:15:28;5.32;;;1.95;;
67839;SDS011;54636;51.684;5.142;2024-01-15T14:17:53;4.55;;;1.52;;
67839;SDS011;54636;51.684;5.142;2024-01-15T14:20:19;1.23;;;0.90;;
67839;SDS011;54636;51.684;5.142;2024-01-15T14:22:44;4.90;;;0.95;;
67839;SDS011;54636;51.684;5.142;2024-01-15T14:25:10;7.80;;;2.13;;
67839;SDS011;54636;51.684;5.142;2024-01-15T14:27:35;5.18;;;1.88;;
67839;SDS011;54636;51.684;5.142;2024-01-15T14:30:01;9.00;;;2.38;;
67839;SDS011;54636;51.684;5.142;2024-01-15T14:32:27;5.78;;;1.73;;
67839;SDS011;54636;51.684;5.142;2024-01-15T14:34:53;4.05;;;1.48;;
67839;SDS011;54636;51.684;5.142;2024-01-15T14:37:18;5.15;;;1.33;;
67839;SDS011;54636;51.684;5.142;2024-01-15T14:39:44;9.85;;;2.40;;
67839;SDS011;54636;51.684;5.142;2024-01-15T14:42:09;3.15;;;1.20;;
67839;SDS011;54636;51.684;5.142;2024-01-15T14:44:36;10.13;;;1.23;;
67839;SDS011;54636;51.684;5.142;2024-01-15T14:47:03;7.38;;;1.30;;
67839;SDS011;54636;51.684;5.142;2024-01-15T14:49:28;4.53;;;1.63;;
67839;SDS011;54636;51.684;5.142;2024-01-15T14:51:54;3.13;;;0.82;;
67839;SDS011;54636;51.684;5.142;2024-01-15T14:54:19;5.13;;;1.13;;
67839;SDS011;54636;51.684;5.142;2024-01-15T14:56:45;6.43;;;1.00;;